Hatsu Envoy — VSQL9 — position and weather

sailwx.info

Track history (hours):
 
Tides and Currents Weather Stations Pressure Air Temp Water Temp Dewpoint Dewpoint Depression Visibility Wind Speed Wind Dir Waves Ship Positions

Hatsu Envoy

Last reported at 2015-Jul-21 08:23 UTC. Time now 2015-Jul-29 22:00 UTC.
Position N 48°30' W 126°51'.
Warning: this ship's position is 8 days out of date.

Type: Ship (hazmat cat D). MMSI: 235414000.

Date/timePositionNaut miles runAvg speedWind from/ knotsBaromVisibWave heightAir tempDewpointWater temp
2015-Jul-21 08:23N 48°30' W 126°51'1617.8
2015-Jul-21 07:29N 48°30' W 126°27'1717.7
2015-Jul-21 06:33N 48°30' W 126°02'1818.5
2015-Jul-21 05:33N 48°31' W 125°34'1818.4
2015-Jul-21 04:33N 48°30' W 125°06'1919.2
2015-Jul-21 03:33N 48°29' W 124°37'1818.2
2015-Jul-21 02:33N 48°22' W 124°12'1717.2
2015-Jul-21 01:33N 48°17' W 123°47'1414.0
2015-Jul-21 00:33N 48°19' W 123°27'1110.9
2015-Jul-20 23:33N 48°25' W 123°13'1817.8
2015-Jul-20 22:33N 48°43' W 123°14'1312.7
2015-Jul-20 21:33N 48°55' W 123°11'1817.6
2015-Jul-20 20:33N 49°11' W 123°21'1211.8
2015-Jul-20 19:33N 49°18' W 123°07'2 1.5
2015-Jul-20 18:31N 49°17' W 123°05'0 0.0
2015-Jul-20 17:31N 49°17' W 123°05'0 0.0
2015-Jul-20 16:31N 49°17' W 123°05'0 0.0
2015-Jul-20 15:31N 49°17' W 123°05'0 0.0
2015-Jul-20 14:31N 49°17' W 123°05'0 0.0
2015-Jul-20 13:31N 49°17' W 123°05'0 0.0
2015-Jul-20 12:31N 49°17' W 123°05'0 0.0
2015-Jul-20 11:31N 49°17' W 123°05'0 0.0
2015-Jul-20 10:31N 49°17' W 123°05'0 0.0
2015-Jul-20 09:31N 49°17' W 123°05'0 0.0
2015-Jul-20 08:31N 49°17' W 123°05'0 0.0
2015-Jul-20 07:31N 49°17' W 123°05'0 0.0
2015-Jul-20 06:31N 49°17' W 123°05'0 0.0
2015-Jul-20 05:31N 49°17' W 123°05'0 0.0
2015-Jul-20 04:31N 49°17' W 123°05'0 0.0
2015-Jul-20 03:31N 49°17' W 123°05'0 0.0
2015-Jul-20 02:31N 49°17' W 123°05'0 0.0
2015-Jul-20 01:31N 49°17' W 123°05'0 0.0
2015-Jul-20 00:31N 49°17' W 123°05'0 0.0
2015-Jul-19 23:31N 49°17' W 123°05'0 0.0
2015-Jul-19 22:31N 49°17' W 123°05'0 0.0
2015-Jul-19 21:31N 49°17' W 123°05'0 0.0
2015-Jul-19 20:31N 49°17' W 123°05'0 0.0
2015-Jul-19 19:31N 49°17' W 123°05'0 0.0
2015-Jul-19 18:31N 49°17' W 123°05'0 0.0
2015-Jul-19 17:31N 49°17' W 123°05'0 0.0
2015-Jul-19 16:31N 49°17' W 123°05'0 0.0
2015-Jul-19 15:31N 49°17' W 123°05'0 0.0
2015-Jul-19 14:31N 49°17' W 123°05'0 0.0
2015-Jul-19 13:31N 49°17' W 123°05'1 1.0
2015-Jul-19 12:33N 49°18' W 123°06'10 9.6
2015-Jul-19 11:34N 49°13' W 123°19'1818.1
2015-Jul-19 10:34N 48°57' W 123°09'1414.0
2015-Jul-19 09:34N 48°43' W 123°12'1717.3
2015-Jul-19 08:34N 48°26' W 123°10'1414.1
2015-Jul-19 07:34N 48°16' W 123°26'1110.9
2015-Jul-19 06:33N 48°12' W 123°10'2020.4
2015-Jul-19 05:34N 48°08' W 122°40'2020.5
2015-Jul-19 04:34N 47°50' W 122°27'34 8.5
2015-Jul-19 00:31N 47°15' W 122°23'0 0.0
2015-Jul-18 14:04N 47°15' W 122°23'0 0.1
2015-Jul-18 13:28N 47°15' W 122°23'0 0.0
2015-Jul-18 12:25N 47°15' W 122°23'0 0.0
2015-Jul-18 10:25N 47°15' W 122°23'0 0.0
2015-Jul-18 09:31N 47°15' W 122°23'0 0.0
2015-Jul-18 08:13N 47°15' W 122°23'0 0.0
2015-Jul-17 15:25N 47°15' W 122°23'0 0.0
2015-Jul-17 13:07N 47°15' W 122°23'0 0.0
2015-Jul-17 12:19N 47°15' W 122°23'0 0.0
2015-Jul-17 10:25N 47°15' W 122°23'0 0.0
2015-Jul-17 09:22N 47°15' W 122°23'0 0.0
2015-Jul-17 08:19N 47°15' W 122°23'0 0.0
2015-Jul-17 06:25N 47°15' W 122°23'0 0.0
2015-Jul-16 22:13N 47°15' W 122°23'2 2.4
2015-Jul-16 21:33N 47°16' W 122°24'6 5.6
2015-Jul-16 20:33N 47°22' W 122°24'1414.0
2015-Jul-16 19:33N 47°36' W 122°27'1818.1
2015-Jul-16 18:34N 47°54' W 122°30'1817.4
2015-Jul-16 17:32N 48°09' W 122°44'1717.3
2015-Jul-16 16:34N 48°12' W 123°09'1211.5
2015-Jul-16 15:33N 48°11' W 123°26'1616.1
2015-Jul-16 14:33N 48°13' W 123°50'1918.7
2015-Jul-16 13:33N 48°20' W 124°16'1717.0
2015-Jul-16 12:33N 48°27' W 124°39'1717.2
2015-Jul-16 11:33N 48°29' W 125°05'1818.0
2015-Jul-16 10:33N 48°29' W 125°32'1818.2
2015-Jul-16 09:33N 48°29' W 125°60'1818.3
2015-Jul-16 08:33N 48°29' W 126°27'  
Track history (hours):
 
Tides and Currents Weather Stations Pressure Air Temp Water Temp Dewpoint Dewpoint Depression Visibility Wind Speed Wind Dir Waves Ship Positions

Hatsu Envoy

Last reported at 2015-Jul-21 08:23 UTC. Time now 2015-Jul-29 22:00 UTC.
Position N 48°30' W 126°51'.
Warning: this ship's position is 8 days out of date.

Type: Ship (hazmat cat D). MMSI: 235414000.

Date/timePositionNaut miles runAvg speedWind from/ knotsBaromVisibWave heightAir tempDewpointWater temp
2015-Jul-21 08:23N 48°30' W 126°51'1617.8
2015-Jul-21 07:29N 48°30' W 126°27'1717.7
2015-Jul-21 06:33N 48°30' W 126°02'1818.5
2015-Jul-21 05:33N 48°31' W 125°34'1818.4
2015-Jul-21 04:33N 48°30' W 125°06'1919.2
2015-Jul-21 03:33N 48°29' W 124°37'1818.2
2015-Jul-21 02:33N 48°22' W 124°12'1717.2
2015-Jul-21 01:33N 48°17' W 123°47'1414.0
2015-Jul-21 00:33N 48°19' W 123°27'1110.9
2015-Jul-20 23:33N 48°25' W 123°13'1817.8
2015-Jul-20 22:33N 48°43' W 123°14'1312.7
2015-Jul-20 21:33N 48°55' W 123°11'1817.6
2015-Jul-20 20:33N 49°11' W 123°21'1211.8
2015-Jul-20 19:33N 49°18' W 123°07'2 1.5
2015-Jul-20 18:31N 49°17' W 123°05'0 0.0
2015-Jul-20 17:31N 49°17' W 123°05'0 0.0
2015-Jul-20 16:31N 49°17' W 123°05'0 0.0
2015-Jul-20 15:31N 49°17' W 123°05'0 0.0
2015-Jul-20 14:31N 49°17' W 123°05'0 0.0
2015-Jul-20 13:31N 49°17' W 123°05'0 0.0
2015-Jul-20 12:31N 49°17' W 123°05'0 0.0
2015-Jul-20 11:31N 49°17' W 123°05'0 0.0
2015-Jul-20 10:31N 49°17' W 123°05'0 0.0
2015-Jul-20 09:31N 49°17' W 123°05'0 0.0
2015-Jul-20 08:31N 49°17' W 123°05'0 0.0
2015-Jul-20 07:31N 49°17' W 123°05'0 0.0
2015-Jul-20 06:31N 49°17' W 123°05'0 0.0
2015-Jul-20 05:31N 49°17' W 123°05'0 0.0
2015-Jul-20 04:31N 49°17' W 123°05'0 0.0
2015-Jul-20 03:31N 49°17' W 123°05'0 0.0
2015-Jul-20 02:31N 49°17' W 123°05'0 0.0
2015-Jul-20 01:31N 49°17' W 123°05'0 0.0
2015-Jul-20 00:31N 49°17' W 123°05'0 0.0
2015-Jul-19 23:31N 49°17' W 123°05'0 0.0
2015-Jul-19 22:31N 49°17' W 123°05'0 0.0
2015-Jul-19 21:31N 49°17' W 123°05'0 0.0
2015-Jul-19 20:31N 49°17' W 123°05'0 0.0
2015-Jul-19 19:31N 49°17' W 123°05'0 0.0
2015-Jul-19 18:31N 49°17' W 123°05'0 0.0
2015-Jul-19 17:31N 49°17' W 123°05'0 0.0
2015-Jul-19 16:31N 49°17' W 123°05'0 0.0
2015-Jul-19 15:31N 49°17' W 123°05'0 0.0
2015-Jul-19 14:31N 49°17' W 123°05'0 0.0
2015-Jul-19 13:31N 49°17' W 123°05'1 1.0
2015-Jul-19 12:33N 49°18' W 123°06'10 9.6
2015-Jul-19 11:34N 49°13' W 123°19'1818.1
2015-Jul-19 10:34N 48°57' W 123°09'1414.0
2015-Jul-19 09:34N 48°43' W 123°12'1717.3
2015-Jul-19 08:34N 48°26' W 123°10'1414.1
2015-Jul-19 07:34N 48°16' W 123°26'1110.9
2015-Jul-19 06:33N 48°12' W 123°10'2020.4
2015-Jul-19 05:34N 48°08' W 122°40'2020.5
2015-Jul-19 04:34N 47°50' W 122°27'34 8.5
2015-Jul-19 00:31N 47°15' W 122°23'0 0.0
2015-Jul-18 14:04N 47°15' W 122°23'0 0.1
2015-Jul-18 13:28N 47°15' W 122°23'0 0.0
2015-Jul-18 12:25N 47°15' W 122°23'0 0.0
2015-Jul-18 10:25N 47°15' W 122°23'0 0.0
2015-Jul-18 09:31N 47°15' W 122°23'0 0.0
2015-Jul-18 08:13N 47°15' W 122°23'0 0.0
2015-Jul-17 15:25N 47°15' W 122°23'0 0.0
2015-Jul-17 13:07N 47°15' W 122°23'0 0.0
2015-Jul-17 12:19N 47°15' W 122°23'0 0.0
2015-Jul-17 10:25N 47°15' W 122°23'0 0.0
2015-Jul-17 09:22N 47°15' W 122°23'0 0.0
2015-Jul-17 08:19N 47°15' W 122°23'0 0.0
2015-Jul-17 06:25N 47°15' W 122°23'0 0.0
2015-Jul-16 22:13N 47°15' W 122°23'2 2.4
2015-Jul-16 21:33N 47°16' W 122°24'6 5.6
2015-Jul-16 20:33N 47°22' W 122°24'1414.0
2015-Jul-16 19:33N 47°36' W 122°27'1818.1
2015-Jul-16 18:34N 47°54' W 122°30'1817.4
2015-Jul-16 17:32N 48°09' W 122°44'1717.3
2015-Jul-16 16:34N 48°12' W 123°09'1211.5
2015-Jul-16 15:33N 48°11' W 123°26'1616.1
2015-Jul-16 14:33N 48°13' W 123°50'1918.7
2015-Jul-16 13:33N 48°20' W 124°16'1717.0
2015-Jul-16 12:33N 48°27' W 124°39'1717.2
2015-Jul-16 11:33N 48°29' W 125°05'1818.0
2015-Jul-16 10:33N 48°29' W 125°32'1818.2
2015-Jul-16 09:33N 48°29' W 125°60'1818.3
2015-Jul-16 08:33N 48°29' W 126°27'  

Dump ship's entire track history